createdAt,value
2022-09-20T00:01:14.652Z,12.10
2022-09-20T00:03:47.018Z,8.90
2022-09-20T00:06:17.163Z,9.80
2022-09-20T00:08:44.431Z,9.10
2022-09-20T00:11:14.614Z,8.80
2022-09-20T00:13:42.822Z,10.90
2022-09-20T00:16:12.129Z,9.60
2022-09-20T00:18:39.062Z,8.60
2022-09-20T00:21:15.372Z,10.20
2022-09-20T00:23:42.515Z,9.90
2022-09-20T00:26:09.403Z,9.80
2022-09-20T00:28:36.174Z,10.40
2022-09-20T00:31:03.264Z,11.30
2022-09-20T00:33:50.132Z,10.20
2022-09-20T00:36:17.077Z,10.90
2022-09-20T00:38:43.794Z,10.10
2022-09-20T00:41:10.983Z,11.50
2022-09-20T00:43:43.763Z,13.40
2022-09-20T00:46:33.463Z,9.20
2022-09-20T00:49:12.976Z,8.80
2022-09-20T00:51:43.081Z,9.70
2022-09-20T00:54:16.953Z,11.00
2022-09-20T00:56:47.034Z,10.10
2022-09-20T00:59:19.350Z,14.70
2022-09-20T01:01:52.290Z,11.40
2022-09-20T01:04:21.767Z,10.00
2022-09-20T01:06:54.061Z,12.20
2022-09-20T01:09:20.998Z,10.50
2022-09-20T01:11:49.558Z,9.50
2022-09-20T01:14:18.848Z,10.80
2022-09-20T01:16:45.957Z,11.40
2022-09-20T01:19:50.068Z,9.00
2022-09-20T01:22:27.723Z,12.80
2022-09-20T01:25:04.294Z,10.20
2022-09-20T01:27:41.386Z,8.50
2022-09-20T01:30:19.640Z,8.80
2022-09-20T01:33:17.006Z,9.90
2022-09-20T01:35:47.166Z,7.30
2022-09-20T01:38:33.075Z,10.20
2022-09-20T01:41:17.474Z,11.00
2022-09-20T01:44:05.067Z,14.30
2022-09-20T01:46:36.020Z,10.10
2022-09-20T01:49:14.968Z,7.60
2022-09-20T01:52:27.570Z,10.70
2022-09-20T01:55:25.526Z,10.70
2022-09-20T01:58:26.242Z,10.70
2022-09-20T02:01:32.199Z,11.30
2022-09-20T02:04:34.297Z,10.00
2022-09-20T02:07:35.981Z,11.90
2022-09-20T02:10:20.569Z,11.90
2022-09-20T02:12:56.459Z,13.90
2022-09-20T02:15:57.161Z,10.70
2022-09-20T02:19:00.198Z,17.20
2022-09-20T02:21:52.443Z,13.60
2022-09-20T02:24:37.802Z,12.60
2022-09-20T02:27:23.092Z,14.30
2022-09-20T02:30:04.985Z,10.80
2022-09-20T02:33:02.699Z,11.90
2022-09-20T02:35:57.010Z,17.90
2022-09-20T02:38:54.555Z,14.80
2022-09-20T02:41:46.036Z,12.80
2022-09-20T02:44:54.453Z,12.80
2022-09-20T02:47:39.123Z,14.40
2022-09-20T02:50:21.073Z,11.10
2022-09-20T02:53:05.535Z,11.50
2022-09-20T02:55:39.256Z,11.20
2022-09-20T02:58:28.878Z,13.20
2022-09-20T03:01:20.253Z,13.50
2022-09-20T03:04:05.392Z,13.40
2022-09-20T03:06:53.925Z,13.60
2022-09-20T03:09:34.928Z,13.90
2022-09-20T03:12:20.013Z,17.50
2022-09-20T03:15:07.804Z,16.50
2022-09-20T03:17:47.256Z,12.80
2022-09-20T03:20:19.699Z,13.60
2022-09-20T03:23:08.956Z,15.50
2022-09-20T03:25:50.127Z,16.70
2022-09-20T03:28:34.150Z,11.40
2022-09-20T03:31:11.174Z,13.10
2022-09-20T03:33:55.766Z,14.00
2022-09-20T03:36:46.875Z,14.90
2022-09-20T03:39:35.419Z,17.40
2022-09-20T03:42:13.769Z,14.40
2022-09-20T03:44:55.232Z,15.00
2022-09-20T03:47:29.560Z,14.20
2022-09-20T03:50:08.216Z,16.80
2022-09-20T03:52:53.574Z,16.40
2022-09-20T03:55:36.905Z,17.60
2022-09-20T03:58:41.431Z,16.40
2022-09-20T04:01:33.653Z,14.40
2022-09-20T04:04:11.877Z,13.70
2022-09-20T04:06:44.839Z,19.00
2022-09-20T04:09:43.045Z,16.90
2022-09-20T04:12:22.553Z,15.20
2022-09-20T04:15:17.851Z,17.70
2022-09-20T04:18:08.730Z,14.70
2022-09-20T04:20:49.104Z,15.50
2022-09-20T04:23:30.949Z,20.50
2022-09-20T04:26:00.264Z,15.70
2022-09-20T04:29:08.595Z,16.10
2022-09-20T04:31:49.702Z,12.40
2022-09-20T04:34:59.418Z,14.60
2022-09-20T04:37:33.377Z,14.50
2022-09-20T04:40:37.687Z,16.10
2022-09-20T04:43:25.006Z,15.40
2022-09-20T04:45:54.560Z,17.20
2022-09-20T04:48:48.799Z,16.70
2022-09-20T04:51:53.456Z,16.70
2022-09-20T04:54:44.750Z,13.70
2022-09-20T04:57:28.234Z,13.00
2022-09-20T05:00:04.278Z,15.10
2022-09-20T05:03:10.567Z,8.40
2022-09-20T05:06:11.205Z,15.80
2022-09-20T05:08:58.874Z,11.40
2022-09-20T05:11:53.451Z,14.90
2022-09-20T05:14:32.706Z,15.30
2022-09-20T05:17:06.129Z,15.00
2022-09-20T05:19:56.092Z,16.80
2022-09-20T05:22:47.728Z,14.30
2022-09-20T05:25:48.327Z,15.70
2022-09-20T05:28:35.766Z,18.80
2022-09-20T05:31:31.608Z,18.70
2022-09-20T05:34:09.909Z,18.40
2022-09-20T05:36:56.203Z,15.80
2022-09-20T05:39:34.434Z,12.60
2022-09-20T05:42:20.976Z,15.90
2022-09-20T05:44:56.422Z,16.50
2022-09-20T05:47:40.211Z,17.50
2022-09-20T05:50:18.789Z,10.70
2022-09-20T05:52:58.461Z,14.30
2022-09-20T05:56:00.979Z,14.80
2022-09-20T05:59:13.640Z,13.60
2022-09-20T06:01:46.423Z,13.50
2022-09-20T06:04:19.717Z,17.60
2022-09-20T06:07:00.178Z,18.00
2022-09-20T06:09:56.693Z,16.80
2022-09-20T06:12:52.757Z,22.10
2022-09-20T06:15:33.202Z,18.70
2022-09-20T06:18:33.551Z,22.80
2022-09-20T06:21:03.697Z,22.00
2022-09-20T06:23:31.737Z,18.70
2022-09-20T06:26:08.473Z,18.00
2022-09-20T06:28:54.153Z,24.60
2022-09-20T06:31:23.285Z,15.70
2022-09-20T06:34:13.126Z,13.80
2022-09-20T06:37:06.443Z,23.20
2022-09-20T06:40:33.102Z,20.70
2022-09-20T06:43:00.754Z,18.10
2022-09-20T06:45:27.486Z,15.90
2022-09-20T06:47:54.113Z,18.90
2022-09-20T06:50:20.870Z,24.80
2022-09-20T06:52:49.220Z,23.50
2022-09-20T06:55:29.364Z,19.90
2022-09-20T06:57:56.757Z,20.40
2022-09-20T07:00:24.488Z,25.80
2022-09-20T07:02:51.407Z,29.90
2022-09-20T07:05:21.890Z,19.20
2022-09-20T07:07:48.875Z,22.50
2022-09-20T07:10:16.106Z,15.90
2022-09-20T07:12:42.741Z,11.70
2022-09-20T07:15:10.214Z,11.30
2022-09-20T07:17:37.268Z,9.90
2022-09-20T07:20:04.062Z,11.10
2022-09-20T07:22:30.838Z,12.10
2022-09-20T07:25:02.376Z,10.40
2022-09-20T07:27:29.657Z,16.00
2022-09-20T07:29:56.476Z,10.00
2022-09-20T07:32:23.433Z,8.60
2022-09-20T07:34:50.182Z,14.90
2022-09-20T07:37:18.730Z,11.60
2022-09-20T07:39:46.036Z,13.40
2022-09-20T07:42:13.278Z,15.20
2022-09-20T07:44:43.504Z,16.40
2022-09-20T07:47:11.177Z,15.10
2022-09-20T07:49:37.777Z,16.30
2022-09-20T07:52:04.836Z,14.10
2022-09-20T07:54:31.762Z,13.00
2022-09-20T07:56:58.524Z,12.70
2022-09-20T07:59:25.916Z,10.90
2022-09-20T08:01:52.683Z,14.30
2022-09-20T08:04:19.793Z,14.60
2022-09-20T08:06:46.913Z,11.20
2022-09-20T08:09:14.184Z,9.20
2022-09-20T08:11:43.473Z,13.70
2022-09-20T08:14:16.781Z,9.20
2022-09-20T08:16:48.374Z,6.60
2022-09-20T08:19:17.648Z,7.90
2022-09-20T08:21:44.802Z,7.30
2022-09-20T08:24:11.869Z,7.30
2022-09-20T08:26:38.969Z,8.50
2022-09-20T08:29:06.095Z,6.80
2022-09-20T08:31:36.760Z,10.50
2022-09-20T08:34:09.534Z,7.10
2022-09-20T08:36:41.089Z,6.50
2022-09-20T08:42:09.503Z,5.00
2022-09-20T08:44:57.767Z,4.20
2022-09-20T08:47:49.159Z,3.70
2022-09-20T08:50:19.132Z,4.90
2022-09-20T08:52:52.259Z,6.40
2022-09-20T08:55:23.830Z,6.00
2022-09-20T08:57:56.381Z,7.40
2022-09-20T09:00:26.277Z,6.90
2022-09-20T09:02:56.280Z,4.80
2022-09-20T09:05:33.535Z,7.50
2022-09-20T09:08:05.035Z,8.30
2022-09-20T09:10:42.574Z,5.90
2022-09-20T09:13:18.469Z,5.40
2022-09-20T09:15:49.151Z,7.30
2022-09-20T09:18:16.290Z,6.00
2022-09-20T09:20:46.079Z,10.20
2022-09-20T09:23:26.020Z,10.00
2022-09-20T09:25:54.999Z,9.10
2022-09-20T09:28:27.901Z,7.90
2022-09-20T09:31:22.348Z,6.80
2022-09-20T09:33:49.335Z,5.90
2022-09-20T09:36:21.042Z,4.00
2022-09-20T09:38:48.358Z,5.70
2022-09-20T09:41:17.935Z,4.00
2022-09-20T09:43:59.346Z,5.10
2022-09-20T09:46:27.482Z,6.40
2022-09-20T09:49:17.181Z,5.40
2022-09-20T09:52:02.140Z,6.30
2022-09-20T09:54:36.297Z,4.80
2022-09-20T09:57:37.566Z,6.50
2022-09-20T10:00:13.107Z,4.70
2022-09-20T10:03:08.927Z,5.70
2022-09-20T10:05:58.641Z,4.90
2022-09-20T10:08:46.925Z,7.80
2022-09-20T10:11:30.085Z,4.40
2022-09-20T10:14:23.101Z,6.10
2022-09-20T10:17:08.708Z,4.80
2022-09-20T10:19:43.078Z,5.20
2022-09-20T10:23:06.832Z,6.10
2022-09-20T10:25:40.181Z,5.60
2022-09-20T10:28:20.423Z,6.40
2022-09-20T10:31:15.768Z,5.90
2022-09-20T10:34:03.221Z,6.80
2022-09-20T10:36:49.656Z,8.00
2022-09-20T10:39:24.964Z,6.80
2022-09-20T10:42:48.838Z,7.00
2022-09-20T10:45:59.152Z,5.90
2022-09-20T10:48:29.851Z,6.90
2022-09-20T10:51:15.552Z,4.50
2022-09-20T10:53:53.488Z,5.10
2022-09-20T10:56:23.967Z,7.00
2022-09-20T10:59:11.657Z,6.60
2022-09-20T11:01:54.844Z,4.90
2022-09-20T11:04:55.261Z,5.70
2022-09-20T11:07:53.964Z,5.10
2022-09-20T11:10:35.748Z,5.70
2022-09-20T11:13:11.527Z,6.60
2022-09-20T11:15:45.773Z,3.80
2022-09-20T11:18:28.281Z,6.80
2022-09-20T11:21:24.716Z,4.10
2022-09-20T11:24:03.398Z,4.50
2022-09-20T11:26:44.884Z,4.30
2022-09-20T11:29:26.498Z,4.00
2022-09-20T11:31:58.168Z,3.70
2022-09-20T11:34:32.934Z,3.40
2022-09-20T11:37:03.193Z,3.10
2022-09-20T11:39:44.422Z,4.00
2022-09-20T11:42:16.395Z,4.40
2022-09-20T11:44:43.446Z,2.50
2022-09-20T11:47:42.887Z,2.90
2022-09-20T11:50:29.180Z,2.70
2022-09-20T11:52:55.975Z,3.50
2022-09-20T11:55:50.372Z,2.70
2022-09-20T11:58:21.211Z,3.50
2022-09-20T12:00:51.854Z,2.60
2022-09-20T12:03:40.105Z,3.50
2022-09-20T12:06:31.007Z,4.00
2022-09-20T12:09:00.465Z,2.40
2022-09-20T12:11:38.653Z,2.50
2022-09-20T12:14:17.956Z,2.30
2022-09-20T12:16:47.530Z,2.90
2022-09-20T12:19:36.249Z,2.90
2022-09-20T12:22:05.549Z,2.90
2022-09-20T12:24:45.481Z,2.70
2022-09-20T12:27:27.819Z,2.50
2022-09-20T12:30:03.297Z,1.70
2022-09-20T12:32:39.153Z,2.90
2022-09-20T12:35:36.376Z,2.40
2022-09-20T12:38:21.390Z,2.30
2022-09-20T12:41:11.593Z,2.10
2022-09-20T12:44:03.429Z,4.10
2022-09-20T12:46:34.559Z,2.80
2022-09-20T12:49:39.892Z,3.90
2022-09-20T12:52:59.386Z,1.90
2022-09-20T12:55:45.911Z,3.40
2022-09-20T12:58:12.265Z,2.70
2022-09-20T13:00:46.507Z,3.30
2022-09-20T13:03:16.762Z,2.90
2022-09-20T13:05:48.502Z,2.60
2022-09-20T13:08:28.459Z,4.20
2022-09-20T13:11:19.821Z,3.70
2022-09-20T13:14:06.101Z,3.30
2022-09-20T13:16:41.810Z,4.30
2022-09-20T13:19:34.204Z,4.20
2022-09-20T13:22:00.768Z,3.60
2022-09-20T13:24:37.464Z,3.40
2022-09-20T13:27:11.929Z,4.30
2022-09-20T13:29:43.394Z,4.10
2022-09-20T13:32:23.536Z,4.10
2022-09-20T13:35:32.693Z,3.30
2022-09-20T13:38:05.607Z,4.90
2022-09-20T13:40:38.502Z,2.80
2022-09-20T13:43:25.188Z,3.20
2022-09-20T13:46:12.961Z,5.00
2022-09-20T13:48:40.798Z,3.70
2022-09-20T13:51:24.169Z,3.40
2022-09-20T13:53:51.091Z,3.50
2022-09-20T13:56:25.544Z,2.40
2022-09-20T13:58:52.875Z,2.30
2022-09-20T14:01:24.460Z,2.80
2022-09-20T14:03:51.255Z,2.70
2022-09-20T14:06:18.311Z,1.90
2022-09-20T14:08:48.657Z,4.00
2022-09-20T14:11:31.037Z,2.30
2022-09-20T14:14:04.262Z,2.10
2022-09-20T14:16:35.566Z,2.40
2022-09-20T14:19:03.888Z,2.20
2022-09-20T14:21:35.477Z,3.00
2022-09-20T14:24:28.685Z,1.60
2022-09-20T14:27:18.020Z,1.90
2022-09-20T14:29:54.670Z,3.50
2022-09-20T14:32:28.423Z,1.70
2022-09-20T14:35:04.313Z,1.60
2022-09-20T14:37:52.392Z,2.70
2022-09-20T14:40:31.862Z,1.60
2022-09-20T14:43:01.278Z,3.90
2022-09-20T14:45:31.020Z,3.90
2022-09-20T14:48:27.061Z,2.30
2022-09-20T14:51:25.437Z,3.10
2022-09-20T14:54:04.246Z,1.70
2022-09-20T14:56:37.070Z,2.90
2022-09-20T14:59:21.142Z,4.00
2022-09-20T15:02:14.534Z,2.30
2022-09-20T15:04:52.726Z,2.30
2022-09-20T15:07:19.732Z,2.30
2022-09-20T15:09:46.478Z,2.80
2022-09-20T15:12:18.088Z,1.30
2022-09-20T15:14:45.290Z,1.70
2022-09-20T15:17:18.495Z,2.80
2022-09-20T15:19:46.377Z,2.80
2022-09-20T15:22:14.065Z,2.10
2022-09-20T15:24:41.345Z,3.90
2022-09-20T15:27:08.128Z,3.20
2022-09-20T15:29:35.163Z,1.60
2022-09-20T15:32:02.795Z,2.80
2022-09-20T15:34:29.673Z,3.50
2022-09-20T15:36:56.559Z,2.10
2022-09-20T15:39:24.676Z,2.00
2022-09-20T15:41:54.422Z,1.80
2022-09-20T15:44:21.420Z,3.00
2022-09-20T15:46:50.686Z,3.40
2022-09-20T15:49:17.761Z,2.20
2022-09-20T15:51:45.214Z,2.10
2022-09-20T15:54:14.054Z,2.80
2022-09-20T15:56:41.413Z,2.00
2022-09-20T15:59:10.831Z,2.80
2022-09-20T16:01:40.044Z,1.10
2022-09-20T16:04:12.374Z,2.10
2022-09-20T16:06:41.225Z,1.90
2022-09-20T16:09:08.866Z,2.60
2022-09-20T16:11:36.493Z,1.50
2022-09-20T16:14:03.750Z,2.40
2022-09-20T16:16:37.396Z,2.50
2022-09-20T16:19:22.114Z,1.90
2022-09-20T16:21:57.825Z,2.00
2022-09-20T16:24:31.157Z,2.00
2022-09-20T16:26:58.783Z,2.00
2022-09-20T16:29:25.979Z,1.40
2022-09-20T16:31:54.415Z,1.50
2022-09-20T16:34:29.842Z,3.40
2022-09-20T16:37:23.401Z,7.30
2022-09-20T16:39:50.234Z,1.70
2022-09-20T16:42:17.229Z,2.30
2022-09-20T16:44:44.038Z,2.00
2022-09-20T16:47:13.906Z,2.20
2022-09-20T16:49:41.077Z,2.60
2022-09-20T16:52:09.290Z,2.80
2022-09-20T16:54:36.059Z,5.10
2022-09-20T16:57:02.689Z,4.40
2022-09-20T16:59:29.851Z,4.40
2022-09-20T17:01:57.187Z,4.20
2022-09-20T17:04:23.802Z,2.90
2022-09-20T17:06:51.718Z,5.00
2022-09-20T17:09:19.110Z,3.30
2022-09-20T17:11:49.167Z,3.70
2022-09-20T17:14:17.539Z,3.10
2022-09-20T17:16:47.741Z,1.80
2022-09-20T17:19:16.645Z,3.80
2022-09-20T17:21:49.830Z,3.60
2022-09-20T17:24:18.629Z,3.00
2022-09-20T17:26:45.794Z,3.20
2022-09-20T17:29:15.484Z,1.90
2022-09-20T17:31:48.769Z,2.70
2022-09-20T17:34:21.460Z,2.50
2022-09-20T17:36:48.564Z,2.00
2022-09-20T17:39:16.095Z,2.90
2022-09-20T17:41:45.132Z,3.40
2022-09-20T17:44:12.641Z,2.20
2022-09-20T17:46:41.275Z,3.50
2022-09-20T17:49:10.101Z,2.50
2022-09-20T17:51:42.495Z,4.80
2022-09-20T17:54:13.702Z,6.00
2022-09-20T17:56:42.591Z,4.20
2022-09-20T17:59:10.475Z,4.20
2022-09-20T18:01:37.833Z,6.90
2022-09-20T18:04:06.312Z,3.10
2022-09-20T18:06:44.658Z,3.90
2022-09-20T18:09:14.754Z,4.20
2022-09-20T18:11:48.707Z,5.30
2022-09-20T18:14:20.600Z,4.70
2022-09-20T18:16:47.963Z,3.80
2022-09-20T18:19:17.888Z,2.90
2022-09-20T18:21:44.734Z,3.10
2022-09-20T18:24:11.976Z,3.40
2022-09-20T18:26:39.026Z,3.30
2022-09-20T18:29:07.101Z,4.20
2022-09-20T18:31:49.766Z,5.50
2022-09-20T18:34:24.633Z,3.90
2022-09-20T18:36:56.810Z,6.30
2022-09-20T18:39:25.211Z,3.70
2022-09-20T18:41:53.187Z,7.70
2022-09-20T18:44:21.137Z,7.20
2022-09-20T18:46:48.362Z,8.40
2022-09-20T18:49:16.871Z,6.20
2022-09-20T18:51:44.731Z,6.30
2022-09-20T18:54:11.732Z,3.60
2022-09-20T18:56:40.672Z,6.50
2022-09-20T18:59:22.318Z,5.70
2022-09-20T19:02:06.783Z,5.00
2022-09-20T19:05:13.922Z,5.20
2022-09-20T19:07:52.247Z,4.60
2022-09-20T19:10:38.301Z,6.50
2022-09-20T19:13:32.745Z,5.30
2022-09-20T19:16:22.546Z,6.10
2022-09-20T19:19:14.593Z,3.70
2022-09-20T19:22:09.171Z,3.50
2022-09-20T19:24:41.926Z,5.30
2022-09-20T19:27:13.752Z,4.80
2022-09-20T19:29:41.266Z,4.50
2022-09-20T19:32:15.270Z,7.40
2022-09-20T19:34:44.393Z,5.90
2022-09-20T19:37:48.462Z,5.70
2022-09-20T19:40:27.274Z,7.00
2022-09-20T19:43:00.586Z,7.10
2022-09-20T19:45:51.910Z,4.20
2022-09-20T19:48:38.520Z,7.40
2022-09-20T19:51:13.907Z,7.40
2022-09-20T19:53:41.020Z,5.50
2022-09-20T19:56:28.052Z,8.40
2022-09-20T19:58:56.318Z,6.20
2022-09-20T20:01:25.075Z,6.60
2022-09-20T20:03:55.868Z,6.00
2022-09-20T20:06:41.019Z,7.20
2022-09-20T20:09:43.763Z,6.00
2022-09-20T20:12:25.676Z,7.50
2022-09-20T20:15:11.354Z,7.50
2022-09-20T20:17:47.161Z,5.50
2022-09-20T20:20:22.378Z,7.70
2022-09-20T20:22:52.332Z,9.20
2022-09-20T20:25:35.101Z,9.40
2022-09-20T20:28:02.017Z,5.90
2022-09-20T20:30:28.657Z,9.70
2022-09-20T20:32:58.418Z,7.20
2022-09-20T20:35:28.210Z,7.00
2022-09-20T20:37:55.049Z,7.70
2022-09-20T20:40:21.823Z,7.50
2022-09-20T20:42:48.813Z,8.40
2022-09-20T20:45:15.939Z,7.20
2022-09-20T20:47:43.479Z,8.70
2022-09-20T20:50:11.838Z,7.90
2022-09-20T20:52:38.728Z,10.50
2022-09-20T20:55:06.287Z,8.60
2022-09-20T20:57:34.370Z,7.20
2022-09-20T21:00:01.212Z,9.40
2022-09-20T21:02:28.138Z,6.90
2022-09-20T21:04:54.931Z,7.50
2022-09-20T21:07:21.742Z,8.50
2022-09-20T21:09:48.554Z,9.60
2022-09-20T21:12:15.164Z,11.10
2022-09-20T21:14:44.486Z,11.20
2022-09-20T21:17:11.516Z,9.60
2022-09-20T21:19:38.203Z,10.00
2022-09-20T21:22:04.849Z,10.80
2022-09-20T21:24:31.361Z,11.70
2022-09-20T21:26:58.209Z,9.30
2022-09-20T21:29:24.966Z,10.60
2022-09-20T21:31:51.967Z,10.00
2022-09-20T21:34:18.801Z,15.90
2022-09-20T21:36:45.358Z,10.50
2022-09-20T21:39:12.666Z,9.40
2022-09-20T21:41:40.232Z,9.30
2022-09-20T21:44:07.914Z,11.00
2022-09-20T21:46:39.998Z,9.20
2022-09-20T21:49:08.779Z,10.30
2022-09-20T21:51:36.171Z,9.30
2022-09-20T21:54:03.805Z,7.50
2022-09-20T21:56:32.690Z,10.00
2022-09-20T21:59:02.470Z,9.70
2022-09-20T22:01:33.538Z,9.10
2022-09-20T22:04:00.829Z,11.10
2022-09-20T22:06:30.958Z,9.00
2022-09-20T22:09:01.988Z,10.50
2022-09-20T22:11:31.078Z,10.50
2022-09-20T22:13:58.905Z,11.40
2022-09-20T22:16:29.996Z,9.70
2022-09-20T22:18:57.051Z,9.50
2022-09-20T22:21:29.595Z,10.40
2022-09-20T22:24:02.199Z,10.90
2022-09-20T22:26:32.061Z,11.10
2022-09-20T22:28:58.889Z,8.60
2022-09-20T22:31:30.899Z,10.40
2022-09-20T22:34:02.129Z,9.00
2022-09-20T22:36:31.728Z,9.80
2022-09-20T22:38:58.241Z,10.40
2022-09-20T22:41:24.942Z,12.30
2022-09-20T22:43:51.964Z,10.20
2022-09-20T22:46:24.038Z,10.40
2022-09-20T22:48:50.965Z,10.60
2022-09-20T22:51:22.658Z,10.60
2022-09-20T22:53:51.028Z,8.20
2022-09-20T22:56:36.607Z,12.40
2022-09-20T22:59:20.870Z,10.10
2022-09-20T23:01:48.131Z,10.70
2022-09-20T23:04:18.572Z,11.00
2022-09-20T23:06:54.919Z,11.40
2022-09-20T23:09:24.313Z,9.00
2022-09-20T23:11:51.093Z,11.10
2022-09-20T23:14:20.540Z,9.90
2022-09-20T23:16:48.249Z,7.10
2022-09-20T23:19:16.020Z,9.70
2022-09-20T23:21:43.798Z,8.70
2022-09-20T23:24:12.605Z,7.60
2022-09-20T23:26:40.688Z,7.50
2022-09-20T23:29:10.909Z,6.80
2022-09-20T23:31:39.241Z,10.00
2022-09-20T23:34:07.495Z,9.70
2022-09-20T23:36:39.675Z,10.10
2022-09-20T23:39:08.286Z,8.60
2022-09-20T23:41:36.541Z,11.50
2022-09-20T23:44:07.367Z,8.20
2022-09-20T23:46:34.547Z,7.70
2022-09-20T23:49:01.755Z,12.40
2022-09-20T23:51:29.378Z,10.80
2022-09-20T23:53:56.594Z,8.80
2022-09-20T23:56:23.929Z,10.00
2022-09-20T23:58:51.234Z,10.50
